Maria Desgagnes — VCWL — position and weather

sailwx.info

Track history (hours):
 
Tides and Currents Weather Stations Pressure Air Temp Water Temp Dewpoint Dewpoint Depression Visibility Wind Speed Wind Dir Waves Ship Positions

Maria Desgagnes

Last reported at 2014-Oct-17 06:08 UTC. Time now 2014-Oct-31 23:43 UTC.
Position N 43°59' W 076°33'.
Warning: this ship's position is 14 days out of date.

Length 120 m; draft 7.9 m.

Type: Ship. MMSI: 316285000.

Date/timePositionNaut miles runAvg speedWind from/ knotsBaromVisibWave heightAir tempDewpointWater temp
2014-Oct-17 06:08N 43°59' W 076°33'813.3
2014-Oct-17 05:32N 44°05' W 076°26'1412.0
2014-Oct-17 04:21N 44°13' W 076°10'92 6.4
2014-Oct-16 14:00N 45°06' W 074°24'911.7 050 / 18 17.217.316.3
2014-Oct-16 13:16N 45°13' W 074°17'16 9.1
2014-Oct-16 11:32N 45°18' W 073°56'1 1.0
2014-Oct-16 10:34N 45°19' W 073°55'7 6.9
2014-Oct-16 09:33N 45°24' W 073°48'8 8.0
2014-Oct-16 08:33N 45°24' W 073°36'3 3.0
2014-Oct-16 07:32N 45°24' W 073°32'5 4.1
2014-Oct-16 06:14N 45°30' W 073°31'5 3.2
2014-Oct-16 04:33N 45°35' W 073°30'  
2014-Oct-11 00:08N 46°27' W 072°16'915.5
2014-Oct-10 23:33N 46°23' W 072°27'1613.4
2014-Oct-10 22:20N 46°14' W 072°47'2614.0
2014-Oct-10 20:31N 45°56' W 073°13'1414.3
2014-Oct-10 19:33N 45°44' W 073°24'1312.8
2014-Oct-10 18:34N 45°33' W 073°31'3 3.4
2014-Oct-10 17:34N 45°29' W 073°31'4 3.8
2014-Oct-10 16:33N 45°26' W 073°30'3 2.9
2014-Oct-10 15:33N 45°24' W 073°34'4 4.0
2014-Oct-10 14:34N 45°25' W 073°40'9 8.5
2014-Oct-10 13:33N 45°21' W 073°51'4 4.3
2014-Oct-10 12:34N 45°18' W 073°55'2 2.0
2014-Oct-10 11:33N 45°17' W 073°57'6 6.2
2014-Oct-10 10:32N 45°13' W 074°05'8 7.8
2014-Oct-10 09:33N 45°13' W 074°15'98 8.1
2014-Oct-09 21:27N 44°15' W 076°05'1112.4
2014-Oct-09 20:33N 44°10' W 076°19'  
Track history (hours):
 
Tides and Currents Weather Stations Pressure Air Temp Water Temp Dewpoint Dewpoint Depression Visibility Wind Speed Wind Dir Waves Ship Positions

Maria Desgagnes

Last reported at 2014-Oct-17 06:08 UTC. Time now 2014-Oct-31 23:43 UTC.
Position N 43°59' W 076°33'.
Warning: this ship's position is 14 days out of date.

Length 120 m; draft 7.9 m.

Type: Ship. MMSI: 316285000.

Date/timePositionNaut miles runAvg speedWind from/ knotsBaromVisibWave heightAir tempDewpointWater temp
2014-Oct-17 06:08N 43°59' W 076°33'813.3
2014-Oct-17 05:32N 44°05' W 076°26'1412.0
2014-Oct-17 04:21N 44°13' W 076°10'92 6.4
2014-Oct-16 14:00N 45°06' W 074°24'911.7 050 / 18 17.217.316.3
2014-Oct-16 13:16N 45°13' W 074°17'16 9.1
2014-Oct-16 11:32N 45°18' W 073°56'1 1.0
2014-Oct-16 10:34N 45°19' W 073°55'7 6.9
2014-Oct-16 09:33N 45°24' W 073°48'8 8.0
2014-Oct-16 08:33N 45°24' W 073°36'3 3.0
2014-Oct-16 07:32N 45°24' W 073°32'5 4.1
2014-Oct-16 06:14N 45°30' W 073°31'5 3.2
2014-Oct-16 04:33N 45°35' W 073°30'  
2014-Oct-11 00:08N 46°27' W 072°16'915.5
2014-Oct-10 23:33N 46°23' W 072°27'1613.4
2014-Oct-10 22:20N 46°14' W 072°47'2614.0
2014-Oct-10 20:31N 45°56' W 073°13'1414.3
2014-Oct-10 19:33N 45°44' W 073°24'1312.8
2014-Oct-10 18:34N 45°33' W 073°31'3 3.4
2014-Oct-10 17:34N 45°29' W 073°31'4 3.8
2014-Oct-10 16:33N 45°26' W 073°30'3 2.9
2014-Oct-10 15:33N 45°24' W 073°34'4 4.0
2014-Oct-10 14:34N 45°25' W 073°40'9 8.5
2014-Oct-10 13:33N 45°21' W 073°51'4 4.3
2014-Oct-10 12:34N 45°18' W 073°55'2 2.0
2014-Oct-10 11:33N 45°17' W 073°57'6 6.2
2014-Oct-10 10:32N 45°13' W 074°05'8 7.8
2014-Oct-10 09:33N 45°13' W 074°15'98 8.1
2014-Oct-09 21:27N 44°15' W 076°05'1112.4
2014-Oct-09 20:33N 44°10' W 076°19'  

Dump ship's entire track history